Time;durP1;ratioP1;P1;durP2;ratioP2;P2;SDS_P1;SDS_P2;PMS_P1;PMS_P2;Temp;Humidity;BMP_temperature;BMP_pressure;BME280_temperature;BME280_humidity;BME280_pressure;Samples;Min_cycle;Max_cycle;Signal;HPM_P1;HPM_P2
2021/06/04 00:00:18;;;;;;;42.13;32.25;;;16.90;94.40;;;;;;3576854;40;20037;-76
2021/06/04 00:02:45;;;;;;;47.25;33.92;;;16.90;94.30;;;;;;3567497;40;20142;-76
2021/06/04 00:05:12;;;;;;;59.50;39.20;;;16.90;94.20;;;;;;3586494;40;20071;-76
2021/06/04 00:07:39;;;;;;;101.38;51.78;;;16.80;94.60;;;;;;3586730;40;20047;-76
2021/06/04 00:10:12;;;;;;;61.75;42.78;;;16.80;94.60;;;;;;3586071;40;20036;-75
2021/06/04 00:12:38;;;;;;;69.22;47.30;;;16.80;94.70;;;;;;3586768;40;20118;-76
2021/06/04 00:15:12;;;;;;;104.13;56.83;;;16.90;94.80;;;;;;3585611;40;20040;-75
2021/06/04 00:17:40;;;;;;;47.00;37.53;;;16.80;94.60;;;;;;3577465;40;20044;-75
2021/06/04 00:20:10;;;;;;;59.53;44.15;;;16.80;94.60;;;;;;3586266;40;20049;-76
2021/06/04 00:22:36;;;;;;;92.75;54.38;;;16.80;94.50;;;;;;3586376;40;20032;-75
2021/06/04 00:25:03;;;;;;;71.72;45.97;;;16.90;94.50;;;;;;3586160;40;20059;-76
2021/06/04 00:27:29;;;;;;;39.50;33.67;;;16.90;94.40;;;;;;3586745;40;20330;-75
2021/06/04 00:29:55;;;;;;;41.35;33.92;;;16.90;94.40;;;;;;3586166;40;20040;-75
2021/06/04 00:32:22;;;;;;;55.17;38.55;;;16.80;94.40;;;;;;3586537;40;20040;-75
2021/06/04 00:34:49;;;;;;;39.50;33.58;;;16.80;94.40;;;;;;3586318;40;20055;-76
2021/06/04 00:37:17;;;;;;;41.40;34.33;;;16.80;94.40;;;;;;3586839;40;20040;-80
2021/06/04 00:39:43;;;;;;;40.67;36.22;;;16.80;94.40;;;;;;3586538;40;20091;-82
2021/06/04 00:42:17;;;;;;;77.15;46.00;;;16.70;94.50;;;;;;3586583;40;20044;-82
2021/06/04 00:44:44;;;;;;;95.70;51.63;;;16.80;94.60;;;;;;3577417;40;20044;-82
2021/06/04 00:47:11;;;;;;;109.63;57.55;;;16.70;94.90;;;;;;3577161;40;20047;-85
2021/06/04 00:49:37;;;;;;;96.88;56.00;;;16.80;94.90;;;;;;3586720;40;20040;-85
2021/06/04 00:52:14;;;;;;;93.32;53.55;;;16.80;95.10;;;;;;3585582;40;20460;-83
2021/06/04 00:54:41;;;;;;;107.35;61.42;;;16.80;95.20;;;;;;3586795;40;20311;-84
2021/06/04 00:57:08;;;;;;;72.15;46.58;;;16.80;95.30;;;;;;3586427;40;20039;-83
2021/06/04 00:59:38;;;;;;;80.68;49.40;;;16.80;95.30;;;;;;3586934;40;20125;-81
2021/06/04 01:02:14;;;;;;;118.78;60.75;;;16.80;95.00;;;;;;3585931;40;20040;-85
2021/06/04 01:04:41;;;;;;;85.93;52.03;;;16.80;95.20;;;;;;3586292;40;20041;-83
2021/06/04 01:07:13;;;;;;;66.03;44.28;;;16.80;95.20;;;;;;3574905;40;20319;-84
2021/06/04 01:10:00;;;;;;;63.38;42.70;;;16.80;95.30;;;;;;3576231;40;20041;-77
2021/06/04 01:12:56;;;;;;;70.40;44.90;;;16.80;95.80;;;;;;3576709;40;20043;-81
2021/06/04 01:15:51;;;;;;;89.13;51.88;;;16.80;96.40;;;;;;3575220;40;20033;-77
2021/06/04 01:18:37;;;;;;;125.38;59.55;;;16.80;95.70;;;;;;3576417;40;20144;-78
2021/06/04 01:21:20;;;;;;;50.70;39.22;;;16.80;95.80;;;;;;3576053;40;20045;-85
2021/06/04 01:24:08;;;;;;;71.88;46.75;;;16.80;95.70;;;;;;3576619;40;20052;-77
2021/06/04 01:26:47;;;;;;;97.43;40.67;;;16.70;95.70;;;;;;3576520;40;20048;-79
2021/06/04 01:29:22;;;;;;;102.68;41.90;;;16.70;95.50;;;;;;3576269;40;20041;-79
2021/06/04 01:31:51;;;;;;;65.22;32.88;;;16.70;95.90;;;;;;3575144;40;20044;-81
2021/06/04 01:34:22;;;;;;;70.75;40.35;;;16.70;95.50;;;;;;3576435;40;20033;-85
2021/06/04 01:36:55;;;;;;;30.67;27.20;;;16.70;95.50;;;;;;3575467;40;20040;-86
2021/06/04 01:39:35;;;;;;;45.17;34.80;;;16.60;95.40;;;;;;3586684;40;20328;-85
2021/06/04 01:42:04;;;;;;;102.97;53.40;;;16.60;95.40;;;;;;3576233;40;20375;-77
2021/06/04 01:44:35;;;;;;;60.20;41.90;;;16.70;95.40;;;;;;3576264;40;20037;-77
2021/06/04 01:47:07;;;;;;;54.55;37.38;;;16.70;95.60;;;;;;3575150;40;20068;-81
2021/06/04 01:49:38;;;;;;;71.03;38.13;;;16.70;95.70;;;;;;3575527;40;20041;-80
2021/06/04 01:52:20;;;;;;;49.33;32.00;;;16.70;95.60;;;;;;3575732;40;20060;-85
2021/06/04 01:54:49;;;;;;;62.40;34.95;;;16.70;95.60;;;;;;3583641;40;20044;-85
2021/06/04 01:57:23;;;;;;;78.97;42.45;;;16.80;95.50;;;;;;3576134;40;20122;-85
2021/06/04 01:59:52;;;;;;;;;;;16.80;95.70;;;;;;3577026;40;20045;-86
2021/06/04 02:02:23;;;;;;;50.63;32.38;;;16.80;96.60;;;;;;3576011;40;19935;-86
2021/06/04 02:04:53;;;;;;;46.10;30.63;;;16.80;95.60;;;;;;3576285;40;20041;-79
2021/06/04 02:07:29;;;;;;;42.60;30.63;;;16.80;95.50;;;;;;3586003;40;20757;-84
2021/06/04 02:09:56;;;;;;;58.40;35.42;;;16.80;95.60;;;;;;3585986;40;20044;-84
2021/06/04 02:12:23;;;;;;;45.53;31.35;;;16.80;95.70;;;;;;3586466;40;20038;-84
2021/06/04 02:14:57;;;;;;;47.28;34.95;;;16.80;95.60;;;;;;3586396;40;20082;-81
2021/06/04 02:17:37;;;;;;;57.08;37.88;;;16.80;95.60;;;;;;3586560;40;20052;-81
2021/06/04 02:20:22;;;;;;;54.22;38.67;;;16.80;95.70;;;;;;3586276;40;20056;-84
2021/06/04 02:23:07;;;;;;;45.33;33.38;;;16.80;96.00;;;;;;3585990;40;20056;-85
2021/06/04 02:26:05;;;;;;;45.38;31.92;;;16.80;95.80;;;;;;3586428;40;20041;-85
2021/06/04 02:28:46;;;;;;;50.88;30.95;;;16.80;95.90;;;;;;3585427;40;20044;-85
2021/06/04 02:31:27;;;;;;;57.85;35.95;;;16.80;95.70;;;;;;3576771;40;20048;-85
2021/06/04 02:34:01;;;;;;;53.20;35.22;;;16.80;95.80;;;;;;3585930;40;20048;-86
2021/06/04 02:36:32;;;;;;;55.03;37.90;;;16.80;95.80;;;;;;3585786;40;20040;-80
2021/06/04 02:39:07;;;;;;;46.17;31.95;;;16.80;96.00;;;;;;3585767;40;20076;-84
2021/06/04 02:41:40;;;;;;;70.13;37.90;;;16.90;95.90;;;;;;3585859;40;20324;-85
2021/06/04 02:44:16;;;;;;;75.15;37.55;;;16.90;95.80;;;;;;3585865;40;20378;-84
2021/06/04 02:46:47;;;;;;;80.13;36.22;;;16.90;96.00;;;;;;3576361;40;20047;-83
2021/06/04 02:49:15;;;;;;;102.25;38.15;;;16.80;95.80;;;;;;3578207;40;20070;-86
2021/06/04 02:52:22;;;;;;;114.78;42.45;;;16.80;95.90;;;;;;3576629;40;20036;-84
2021/06/04 02:54:48;;;;;;;64.68;32.30;;;16.80;96.50;;;;;;3576061;40;20651;-75
2021/06/04 02:57:17;;;;;;;83.25;36.75;;;16.80;95.90;;;;;;3584984;40;20208;-76
2021/06/04 02:59:46;;;;;;;103.57;39.20;;;16.80;95.90;;;;;;3585449;40;20302;-76
2021/06/04 03:02:32;;;;;;;120.22;42.50;;;16.80;95.90;;;;;;3585414;40;20032;-78
2021/06/04 03:05:03;;;;;;;94.63;37.88;;;16.70;96.20;;;;;;3585485;40;20036;-77
2021/06/04 03:07:33;;;;;;;75.65;36.17;;;16.70;96.00;;;;;;3585948;40;20085;-76
2021/06/04 03:10:05;;;;;;;49.40;30.25;;;16.70;96.00;;;;;;3575908;40;20048;-75
2021/06/04 03:12:39;;;;;;;45.20;30.80;;;16.70;96.00;;;;;;3585762;40;20048;-75
2021/06/04 03:15:17;;;;;;;82.93;38.13;;;16.70;96.00;;;;;;3585381;40;20046;-77
2021/06/04 03:17:43;;;;;;;131.07;46.28;;;16.70;95.90;;;;;;3585648;40;20247;-75
2021/06/04 03:20:14;;;;;;;42.47;29.25;;;16.70;96.00;;;;;;3567765;40;20333;-75
2021/06/04 03:22:42;;;;;;;64.45;36.65;;;16.70;96.00;;;;;;3576418;40;20051;-75
2021/06/04 03:25:23;;;;;;;59.15;32.08;;;16.70;96.00;;;;;;3575900;40;20032;-76
2021/06/04 03:27:50;;;;;;;66.38;31.63;;;16.80;96.30;;;;;;3585562;40;20041;-82
2021/06/04 03:30:19;;;;;;;61.95;36.22;;;16.80;96.20;;;;;;3576473;40;20117;-77
2021/06/04 03:32:46;;;;;;;167.85;51.90;;;16.70;96.20;;;;;;3577880;40;20064;-84
2021/06/04 03:35:13;;;;;;;303.73;77.47;;;16.70;96.20;;;;;;3586837;40;20329;-85
2021/06/04 03:37:39;;;;;;;247.50;63.25;;;16.70;96.40;;;;;;3586290;40;20070;-78
2021/06/04 03:40:09;;;;;;;146.57;50.95;;;16.70;96.40;;;;;;3577817;40;20032;-77
2021/06/04 03:42:38;;;;;;;132.27;45.75;;;16.70;96.50;;;;;;3577900;40;20085;-77
2021/06/04 03:45:08;;;;;;;127.88;44.67;;;16.70;96.50;;;;;;3586856;40;20223;-80
2021/06/04 03:47:35;;;;;;;199.60;56.30;;;16.70;96.40;;;;;;3578259;40;20044;-80
2021/06/04 03:50:00;;;;;;;168.82;53.85;;;16.70;96.50;;;;;;3586960;40;20055;-77
2021/06/04 03:52:26;;;;;;;60.63;34.08;;;16.80;96.60;;;;;;3586708;40;20052;-81
2021/06/04 03:54:55;;;;;;;139.55;50.65;;;16.70;96.40;;;;;;3582274;40;20033;-76
2021/06/04 03:57:29;;;;;;;63.25;37.40;;;16.80;96.70;;;;;;3580094;40;20048;-78
2021/06/04 03:59:59;;;;;;;113.57;41.35;;;16.80;96.60;;;;;;3586976;40;20048;-76
2021/06/04 04:02:27;;;;;;;137.45;45.20;;;16.80;96.60;;;;;;3587102;40;20070;-85
2021/06/04 04:04:57;;;;;;;90.95;40.15;;;16.90;96.60;;;;;;3587095;40;20067;-80
2021/06/04 04:07:28;;;;;;;80.22;36.15;;;16.90;96.60;;;;;;3586935;40;20416;-76
2021/06/04 04:09:54;;;;;;;74.40;39.30;;;16.90;96.50;;;;;;3586701;40;20123;-76
2021/06/04 04:12:20;;;;;;;280.90;67.40;;;17.00;96.50;;;;;;3586760;40;20544;-76
2021/06/04 04:14:46;;;;;;;115.53;47.28;;;16.90;96.70;;;;;;3577607;40;20076;-76
2021/06/04 04:17:12;;;;;;;68.38;32.47;;;17.00;96.70;;;;;;3586509;40;20352;-76
2021/06/04 04:19:38;;;;;;;154.27;51.92;;;17.00;96.60;;;;;;3577630;40;20305;-82
2021/06/04 04:22:05;;;;;;;52.05;33.20;;;17.00;96.70;;;;;;3586829;40;20129;-76
2021/06/04 04:24:36;;;;;;;55.40;36.53;;;17.00;96.70;;;;;;3586816;40;20335;-83
2021/06/04 04:27:04;;;;;;;70.88;36.00;;;17.00;96.70;;;;;;3586965;40;20090;-83
2021/06/04 04:29:30;;;;;;;207.25;60.67;;;17.10;96.80;;;;;;3587306;40;20088;-78
2021/06/04 04:32:00;;;;;;;103.90;45.60;;;17.10;96.80;;;;;;3586860;40;20040;-76
2021/06/04 04:34:31;;;;;;;130.93;49.83;;;17.10;96.80;;;;;;3577830;40;20224;-81
2021/06/04 04:37:00;;;;;;;148.77;53.15;;;17.10;96.90;;;;;;3586650;40;20048;-81
2021/06/04 04:39:36;;;;;;;243.32;66.38;;;17.10;96.90;;;;;;3587045;40;20056;-83
2021/06/04 04:42:05;;;;;;;154.52;54.28;;;17.10;97.00;;;;;;3585853;40;20063;-82
2021/06/04 04:44:33;;;;;;;148.25;56.63;;;17.20;97.10;;;;;;3586703;40;20037;-85
2021/06/04 04:47:02;;;;;;;283.15;76.72;;;17.20;97.10;;;;;;3586075;40;20133;-77
2021/06/04 04:49:28;;;;;;;103.15;44.78;;;17.20;97.20;;;;;;3586564;40;20331;-77
2021/06/04 04:51:54;;;;;;;153.10;51.20;;;17.30;97.10;;;;;;3585513;40;20048;-76
2021/06/04 04:54:21;;;;;;;107.47;46.67;;;17.30;97.10;;;;;;3586449;40;20044;-76
2021/06/04 04:56:48;;;;;;;151.07;53.30;;;17.30;97.10;;;;;;3591445;40;20059;-79
2021/06/04 04:59:14;;;;;;;77.43;42.50;;;17.30;97.40;;;;;;3586055;40;20041;-76
2021/06/04 05:01:41;;;;;;;87.40;47.25;;;17.40;97.10;;;;;;3586147;40;20219;-76
2021/06/04 05:04:07;;;;;;;166.93;54.55;;;17.40;97.20;;;;;;3586197;40;20045;-76
2021/06/04 05:06:35;;;;;;;72.40;45.75;;;17.40;97.20;;;;;;3577198;40;20052;-76
2021/06/04 05:09:04;;;;;;;182.38;57.00;;;17.40;97.20;;;;;;3586037;40;20082;-75
2021/06/04 05:11:30;;;;;;;94.57;47.65;;;17.40;97.10;;;;;;3586395;40;20145;-75
2021/06/04 05:13:56;;;;;;;138.35;55.17;;;17.50;97.20;;;;;;3568584;40;20041;-76
2021/06/04 05:16:25;;;;;;;86.82;46.03;;;17.50;97.20;;;;;;3586425;40;20028;-76
2021/06/04 05:18:51;;;;;;;183.25;60.28;;;17.60;97.20;;;;;;3577127;40;20355;-77
2021/06/04 05:21:18;;;;;;;134.57;56.05;;;17.60;97.20;;;;;;3585956;40;20107;-76
2021/06/04 05:23:45;;;;;;;144.63;59.15;;;17.70;97.20;;;;;;3577065;40;20045;-75
2021/06/04 05:26:13;;;;;;;117.22;51.92;;;17.80;97.20;;;;;;3576842;40;20313;-76
2021/06/04 05:28:40;;;;;;;86.15;46.88;;;17.80;97.20;;;;;;3586526;40;20088;-75
2021/06/04 05:31:10;;;;;;;71.47;43.30;;;17.80;97.10;;;;;;3586033;40;20306;-76
2021/06/04 05:33:40;;;;;;;90.45;42.78;;;17.80;97.20;;;;;;3576977;40;20037;-75
2021/06/04 05:36:09;;;;;;;84.95;44.28;;;17.90;97.20;;;;;;3586083;40;20058;-75
2021/06/04 05:38:35;;;;;;;49.25;33.72;;;18.00;97.30;;;;;;3586199;40;20213;-75
2021/06/04 05:41:02;;;;;;;51.58;33.13;;;18.00;97.30;;;;;;3585958;40;20342;-75
2021/06/04 05:43:36;;;;;;;41.88;28.00;;;18.00;97.20;;;;;;3576806;40;20040;-76
2021/06/04 05:46:03;;;;;;;;;;;18.00;97.20;;;;;;3586360;40;20334;-75
2021/06/04 05:48:29;;;;;;;47.53;31.80;;;18.00;97.20;;;;;;3584396;40;19991;-75
2021/06/04 05:50:58;;;;;;;37.35;30.35;;;18.10;97.30;;;;;;3585933;40;20051;-76
2021/06/04 05:53:29;;;;;;;46.53;31.70;;;18.10;97.30;;;;;;3583450;40;20072;-75
2021/06/04 05:55:57;;;;;;;35.33;28.95;;;18.20;97.30;;;;;;3582654;40;20239;-86
2021/06/04 05:58:23;;;;;;;58.53;36.13;;;18.20;97.30;;;;;;3585636;40;20340;-75
2021/06/04 06:00:55;;;;;;;34.53;29.15;;;18.20;97.30;;;;;;3585953;40;20036;-77
2021/06/04 06:03:31;;;;;;;50.55;34.38;;;18.20;97.30;;;;;;3577328;40;20055;-86
2021/06/04 06:05:57;;;;;;;38.78;30.10;;;18.30;97.40;;;;;;3583790;40;20050;-86
2021/06/04 06:08:24;;;;;;;43.03;34.22;;;18.40;97.30;;;;;;3577283;40;20323;-85
2021/06/04 06:10:50;;;;;;;34.67;31.15;;;18.40;97.40;;;;;;3585812;40;20549;-78
2021/06/04 06:13:17;;;;;;;37.22;31.85;;;18.60;97.50;;;;;;3576869;40;20228;-86
2021/06/04 06:15:44;;;;;;;41.00;32.95;;;18.80;97.60;;;;;;3586155;40;20044;-85
2021/06/04 06:18:10;;;;;;;39.42;33.13;;;18.90;97.40;;;;;;3576061;40;20043;-76
2021/06/04 06:20:39;;;;;;;32.65;28.50;;;19.10;97.30;;;;;;3576365;40;20072;-77
2021/06/04 06:23:11;;;;;;;37.45;29.33;;;19.20;97.30;;;;;;3576545;40;20036;-82
2021/06/04 06:25:44;;;;;;;46.83;35.25;;;19.30;97.20;;;;;;3585554;40;20082;-77
2021/06/04 06:28:14;;;;;;;37.58;31.75;;;19.30;96.90;;;;;;3600421;23;20045;-78
2021/06/04 06:30:40;;;;;;;40.10;32.30;;;19.40;97.10;;;;;;3575745;40;20610;-76
2021/06/04 06:33:07;;;;;;;38.83;33.15;;;19.50;96.80;;;;;;3573520;40;20818;-81
2021/06/04 06:35:51;;;;;;;39.67;33.08;;;19.40;96.90;;;;;;3575715;40;20334;-82
2021/06/04 06:38:17;;;;;;;47.22;35.15;;;19.60;96.00;;;;;;3575500;40;20037;-83
2021/06/04 06:40:46;;;;;;;35.58;31.40;;;19.70;96.90;;;;;;3575883;40;20041;-82
2021/06/04 06:43:13;;;;;;;42.42;33.20;;;19.80;96.80;;;;;;3574798;40;20253;-76
2021/06/04 06:45:39;;;;;;;40.95;33.63;;;19.80;96.70;;;;;;3574947;40;20138;-82
2021/06/04 06:48:06;;;;;;;39.13;33.08;;;19.90;97.00;;;;;;3574411;40;20077;-77
2021/06/04 06:50:44;;;;;;;40.00;33.08;;;20.10;97.00;;;;;;3574727;40;20075;-79
2021/06/04 06:53:13;;;;;;;39.05;32.53;;;20.20;96.90;;;;;;3575429;40;20315;-83
2021/06/04 06:55:42;;;;;;;38.80;33.30;;;20.50;97.00;;;;;;3575651;40;20309;-79
2021/06/04 06:58:09;;;;;;;39.78;33.50;;;20.90;97.00;;;;;;3575062;40;20235;-78
2021/06/04 07:00:38;;;;;;;43.38;35.42;;;21.10;97.00;;;;;;3575747;40;20040;-75
2021/06/04 07:03:06;;;;;;;45.65;35.72;;;21.40;96.80;;;;;;3574900;40;20073;-75
2021/06/04 07:05:33;;;;;;;37.95;33.95;;;21.50;96.60;;;;;;3575324;40;20449;-79
2021/06/04 07:07:59;;;;;;;40.28;34.78;;;21.70;96.30;;;;;;3576961;40;20045;-79
2021/06/04 07:10:28;;;;;;;43.65;35.97;;;21.80;96.20;;;;;;3567409;40;20110;-78
2021/06/04 07:13:00;;;;;;;41.35;36.95;;;21.70;96.00;;;;;;3577246;40;20060;-84
2021/06/04 07:15:29;;;;;;;45.65;35.92;;;21.60;95.70;;;;;;3576678;40;20033;-82
2021/06/04 07:17:58;;;;;;;44.00;34.63;;;21.40;95.90;;;;;;3576696;40;20062;-84
2021/06/04 07:20:30;;;;;;;40.70;35.45;;;21.90;95.50;;;;;;3576076;40;20025;-84
2021/06/04 07:22:57;;;;;;;40.28;35.22;;;22.60;96.00;;;;;;3576577;40;20143;-79
2021/06/04 07:25:33;;;;;;;43.15;33.03;;;23.10;95.70;;;;;;3575918;40;20048;-83
2021/06/04 07:28:00;;;;;;;36.88;32.83;;;23.50;95.70;;;;;;3577168;40;20049;-81
2021/06/04 07:30:36;;;;;;;36.10;32.28;;;23.90;95.60;;;;;;3587117;40;20087;-85
2021/06/04 07:33:06;;;;;;;40.88;34.67;;;24.20;95.10;;;;;;3586569;40;20047;-85
2021/06/04 07:35:33;;;;;;;36.30;32.47;;;24.60;95.70;;;;;;3577777;40;20324;-81
2021/06/04 07:38:00;;;;;;;38.45;32.25;;;24.80;95.60;;;;;;3586701;40;20047;-82
2021/06/04 07:40:29;;;;;;;37.15;31.70;;;25.00;95.10;;;;;;3586764;40;20043;-83
2021/06/04 07:42:57;;;;;;;39.97;32.97;;;25.30;94.70;;;;;;3586264;40;20040;-83
2021/06/04 07:45:28;;;;;;;34.67;31.13;;;25.30;94.30;;;;;;3577789;40;20342;-83
2021/06/04 07:47:54;;;;;;;37.28;32.28;;;25.30;94.10;;;;;;3587004;40;20074;-79
2021/06/04 07:50:21;;;;;;;37.28;33.42;;;25.40;94.30;;;;;;3569588;40;20036;-83
2021/06/04 07:52:47;;;;;;;35.00;31.17;;;25.30;93.90;;;;;;3587089;40;20044;-82
2021/06/04 07:55:14;;;;;;;37.45;31.25;;;25.10;93.40;;;;;;3577255;40;20044;-77
2021/06/04 07:57:40;;;;;;;35.10;31.25;;;24.90;93.40;;;;;;3577458;40;20040;-84
2021/06/04 08:00:24;;;;;;;34.78;31.13;;;25.10;93.30;;;;;;3586795;40;20025;-76
2021/06/04 08:02:50;;;;;;;32.17;28.73;;;25.40;91.90;;;;;;3586945;40;20145;-81
2021/06/04 08:05:16;;;;;;;32.75;29.27;;;25.50;92.80;;;;;;3577277;40;20044;-80
2021/06/04 08:07:43;;;;;;;33.42;29.58;;;25.60;92.80;;;;;;3587101;40;20036;-81
2021/06/04 08:10:10;;;;;;;30.80;27.67;;;25.30;92.00;;;;;;3586205;40;20032;-80
2021/06/04 08:12:38;;;;;;;33.08;29.88;;;25.30;91.60;;;;;;3577666;40;20251;-81
2021/06/04 08:15:27;;;;;;;32.92;29.63;;;25.50;91.30;;;;;;3577219;40;20043;-82
2021/06/04 08:17:53;;;;;;;29.05;26.05;;;25.70;87.90;;;;;;3586768;40;20438;-81
2021/06/04 08:20:23;;;;;;;31.42;28.00;;;25.80;91.30;;;;;;3586030;40;20044;-78
2021/06/04 08:22:54;;;;;;;28.67;25.67;;;26.10;89.50;;;;;;3586581;40;20362;-77
2021/06/04 08:25:24;;;;;;;26.83;24.13;;;26.30;90.00;;;;;;3586506;40;20036;-81
2021/06/04 08:27:52;;;;;;;24.35;21.83;;;26.60;90.10;;;;;;3586724;40;20040;-79
2021/06/04 08:30:23;;;;;;;27.50;24.38;;;26.60;89.20;;;;;;3577371;40;20059;-78
2021/06/04 08:32:49;;;;;;;26.95;24.08;;;26.70;87.90;;;;;;3586404;40;20062;-78
2021/06/04 08:35:15;;;;;;;25.38;22.75;;;26.80;87.70;;;;;;3585968;40;20052;-77
2021/06/04 08:37:42;;;;;;;27.85;24.73;;;26.80;88.10;;;;;;3586351;40;20036;-78
2021/06/04 08:40:14;;;;;;;30.75;27.35;;;26.80;86.90;;;;;;3577031;40;20039;-81
2021/06/04 08:43:25;;;;;;;34.47;28.33;;;26.90;87.80;;;;;;3585193;40;20033;-80
2021/06/04 08:46:18;;;;;;;30.08;26.88;;;26.90;82.30;;;;;;3584327;40;20037;-82
2021/06/04 08:49:10;;;;;;;30.70;27.52;;;26.90;80.30;;;;;;3586140;40;20234;-81
2021/06/04 08:51:50;;;;;;;25.77;23.17;;;27.00;81.70;;;;;;3576013;40;20242;-82
2021/06/04 08:54:31;;;;;;;24.83;22.30;;;27.20;84.10;;;;;;3576845;40;20071;-83
2021/06/04 08:57:15;;;;;;;26.80;23.65;;;27.30;84.70;;;;;;3586358;40;20056;-82
2021/06/04 08:59:41;;;;;;;29.50;24.67;;;27.40;77.50;;;;;;3567974;40;20043;-82
2021/06/04 09:02:21;;;;;;;25.52;22.25;;;27.40;84.90;;;;;;3577064;40;20052;-82
2021/06/04 09:04:53;;;;;;;26.80;23.98;;;27.40;84.30;;;;;;3586576;40;20045;-80
2021/06/04 09:07:24;;;;;;;24.73;21.92;;;27.40;83.00;;;;;;3575447;40;20036;-81
2021/06/04 09:09:59;;;;;;;25.92;23.10;;;27.40;80.30;;;;;;3586481;40;20047;-82
2021/06/04 09:12:39;;;;;;;24.13;21.70;;;27.40;80.60;;;;;;3585916;40;20066;-79
2021/06/04 09:15:08;;;;;;;23.00;20.65;;;27.30;79.50;;;;;;3568495;40;20052;-82
2021/06/04 09:17:46;;;;;;;24.48;22.00;;;27.30;82.90;;;;;;3586320;40;20044;-82
2021/06/04 09:20:31;;;;;;;22.05;19.83;;;27.40;78.30;;;;;;3583630;40;20040;-81
2021/06/04 09:23:03;;;;;;;30.67;23.90;;;27.40;81.70;;;;;;3586089;40;20056;-82
2021/06/04 09:25:33;;;;;;;21.80;19.77;;;27.60;80.90;;;;;;3586125;40;20069;-80
2021/06/04 09:28:12;;;;;;;24.45;22.00;;;27.70;81.60;;;;;;3567812;40;20062;-79
2021/06/04 09:30:55;;;;;;;26.80;21.13;;;27.80;77.90;;;;;;3576876;40;20052;-82
2021/06/04 09:33:28;;;;;;;26.05;21.88;;;27.90;81.70;;;;;;3583349;40;20044;-80
2021/06/04 09:35:57;;;;;;;;;;;28.00;77.80;;;;;;3586713;40;20121;-78
2021/06/04 09:38:28;;;;;;;22.90;20.60;;;28.00;71.20;;;;;;3584287;40;19985;-80
2021/06/04 09:40:55;;;;;;;23.65;21.38;;;28.20;79.80;;;;;;3576770;40;20083;-81
2021/06/04 09:43:30;;;;;;;20.95;18.75;;;28.30;77.60;;;;;;3575543;40;20442;-78
2021/06/04 09:46:04;;;;;;;21.58;19.40;;;28.00;75.70;;;;;;3585636;40;20052;-82
2021/06/04 09:48:52;;;;;;;23.98;21.65;;;28.00;76.10;;;;;;3585962;40;20047;-81
2021/06/04 09:51:24;;;;;;;18.65;16.80;;;28.20;73.20;;;;;;3585771;40;20032;-79
2021/06/04 09:53:50;;;;;;;19.38;17.75;;;28.30;77.30;;;;;;3586172;40;20044;-81
2021/06/04 09:56:28;;;;;;;20.85;18.73;;;28.50;78.00;;;;;;3585846;40;20048;-81
2021/06/04 09:59:00;;;;;;;23.73;21.42;;;28.60;76.70;;;;;;3574621;40;20037;-79
2021/06/04 10:01:44;;;;;;;21.20;19.20;;;28.70;75.80;;;;;;3576781;40;20048;-79
2021/06/04 10:04:23;;;;;;;27.10;24.52;;;28.80;76.40;;;;;;3585882;40;20041;-80
2021/06/04 10:07:01;;;;;;;22.27;20.02;;;29.00;71.30;;;;;;3574880;40;20074;-81
2021/06/04 10:09:29;;;;;;;25.67;23.05;;;29.10;70.50;;;;;;3583304;40;20029;-81
2021/06/04 10:12:00;;;;;;;25.25;22.58;;;29.20;74.10;;;;;;3585517;40;20097;-80
2021/06/04 10:14:56;;;;;;;26.92;24.35;;;29.30;74.80;;;;;;3578063;40;20036;-80
2021/06/04 10:19:58;;;;;;;28.80;25.30;;;29.30;72.70;;;;;;3582466;40;20072;-78
2021/06/04 10:22:40;;;;;;;24.38;22.17;;;29.20;73.40;;;;;;3576632;40;20331;-80
2021/06/04 10:25:06;;;;;;;24.58;22.27;;;29.30;69.00;;;;;;3585598;40;20036;-79
2021/06/04 10:27:32;;;;;;;25.08;22.65;;;29.30;75.10;;;;;;3585968;40;20046;-81
2021/06/04 10:30:00;;;;;;;27.35;24.55;;;29.40;74.20;;;;;;3576119;40;20044;-79
2021/06/04 10:32:31;;;;;;;23.70;21.30;;;29.60;74.10;;;;;;3585723;40;20320;-82
2021/06/04 10:35:11;;;;;;;27.88;25.13;;;29.80;72.70;;;;;;3585338;40;20068;-81
2021/06/04 10:37:58;;;;;;;25.63;22.95;;;29.90;71.30;;;;;;3585727;40;20125;-80
2021/06/04 10:40:46;;;;;;;23.20;20.70;;;29.80;66.50;;;;;;3587128;40;20053;-79
2021/06/04 10:43:45;;;;;;;22.40;20.30;;;29.90;68.40;;;;;;3585622;40;20582;-79
2021/06/04 10:46:16;;;;;;;23.92;21.63;;;30.20;65.80;;;;;;3586593;40;20044;-81
2021/06/04 10:49:09;;;;;;;25.17;22.88;;;30.50;70.80;;;;;;3587286;40;20039;-80
2021/06/04 10:51:40;;;;;;;;;;;30.40;58.80;;;;;;3587882;40;20044;-80
2021/06/04 10:54:27;;;;;;;24.13;21.73;;;30.30;56.80;;;;;;3594332;40;20023;-79
2021/06/04 10:57:00;;;;;;;27.20;24.60;;;30.30;67.80;;;;;;3587288;40;20428;-80
2021/06/04 10:59:29;;;;;;;20.83;18.52;;;30.10;64.40;;;;;;3587244;40;20039;-79
2021/06/04 11:02:14;;;;;;;20.73;18.65;;;29.50;68.40;;;;;;3586953;40;20040;-81
2021/06/04 11:04:49;;;;;;;18.92;17.27;;;29.30;60.90;;;;;;3587048;40;20048;-80
2021/06/04 11:07:50;;;;;;;17.60;15.80;;;29.20;65.20;;;;;;3586764;40;20523;-80
2021/06/04 11:10:46;;;;;;;18.15;16.27;;;29.40;64.00;;;;;;3586528;40;20036;-79
2021/06/04 11:13:49;;;;;;;16.23;14.45;;;29.70;63.90;;;;;;3566119;40;20040;-80
2021/06/04 11:16:20;;;;;;;20.05;17.52;;;30.10;62.60;;;;;;3575206;40;20274;-79
2021/06/04 11:19:11;;;;;;;18.83;16.80;;;30.30;64.20;;;;;;3587124;40;20591;-80
2021/06/04 11:21:48;;;;;;;21.30;15.95;;;30.30;57.40;;;;;;3584439;40;20048;-80
2021/06/04 11:24:45;;;;;;;16.38;14.82;;;30.40;65.70;;;;;;3586531;40;20372;-79
2021/06/04 11:27:21;;;;;;;17.23;15.38;;;30.50;59.40;;;;;;3583394;40;20064;-80
2021/06/04 11:29:48;;;;;;;18.98;16.98;;;30.80;63.30;;;;;;3586836;40;20042;-80
2021/06/04 11:32:21;;;;;;;15.52;13.98;;;30.80;62.00;;;;;;3586436;40;20037;-80
2021/06/04 11:35:00;;;;;;;20.08;18.08;;;30.40;64.00;;;;;;3587040;40;20055;-81
2021/06/04 11:37:37;;;;;;;21.15;19.25;;;30.50;61.70;;;;;;3587164;40;20084;-80
2021/06/04 11:40:11;;;;;;;14.80;13.30;;;30.70;62.10;;;;;;3586763;40;20331;-80
2021/06/04 11:42:49;;;;;;;28.17;25.35;;;30.70;58.30;;;;;;3586202;40;20043;-80
2021/06/04 11:45:19;;;;;;;41.63;37.58;;;30.70;62.10;;;;;;3583295;40;20052;-81
2021/06/04 11:47:45;;;;;;;33.97;30.38;;;30.50;62.30;;;;;;3586811;40;20052;-78
2021/06/04 11:50:30;;;;;;;40.83;36.72;;;30.10;67.10;;;;;;3577003;40;20072;-79
2021/06/04 11:53:11;;;;;;;37.13;33.50;;;29.90;66.80;;;;;;3586509;40;20080;-80
2021/06/04 11:55:37;;;;;;;37.30;33.42;;;29.60;62.90;;;;;;3576614;40;20048;-79
2021/06/04 11:58:25;;;;;;;38.67;34.65;;;29.40;67.60;;;;;;3577139;40;20064;-80
2021/06/04 12:00:54;;;;;;;37.40;33.53;;;29.20;66.60;;;;;;3583974;40;20034;-79
2021/06/04 12:03:30;;;;;;;39.45;35.53;;;28.90;68.20;;;;;;3586259;40;20039;-79
2021/06/04 12:06:28;;;;;;;42.28;37.88;;;28.80;66.30;;;;;;3586321;40;20079;-78
2021/06/04 12:08:56;;;;;;;46.20;41.22;;;28.40;64.40;;;;;;3586749;40;20036;-79
2021/06/04 12:11:22;;;;;;;46.63;41.97;;;28.20;68.20;;;;;;3586330;40;20063;-80
2021/06/04 12:13:49;;;;;;;47.08;41.95;;;28.10;68.90;;;;;;3586175;40;20041;-79
2021/06/04 12:16:27;;;;;;;49.75;44.00;;;28.10;68.90;;;;;;3586428;40;20036;-80
2021/06/04 12:19:17;;;;;;;51.60;43.97;;;28.10;67.30;;;;;;3577400;40;20063;-79
2021/06/04 12:21:46;;;;;;;47.42;42.38;;;27.80;67.70;;;;;;3577157;40;20031;-78
2021/06/04 12:24:18;;;;;;;52.63;47.15;;;27.80;70.20;;;;;;3586001;40;20054;-78
2021/06/04 12:26:57;;;;;;;48.53;43.23;;;27.90;68.60;;;;;;3586517;40;20037;-78
2021/06/04 12:32:12;;;;;;;53.75;45.28;;;28.10;69.40;;;;;;3586468;40;20044;-80
2021/06/04 12:34:38;;;;;;;50.65;45.22;;;28.20;66.70;;;;;;3584970;40;20047;-79
2021/06/04 12:37:23;;;;;;;55.67;47.47;;;28.10;67.90;;;;;;3577251;40;20319;-80
2021/06/04 12:40:12;;;;;;;48.25;41.58;;;28.00;68.50;;;;;;3586239;40;20061;-79
2021/06/04 12:42:56;;;;;;;46.15;41.13;;;27.90;68.90;;;;;;3572987;40;20033;-78
2021/06/04 12:45:27;;;;;;;52.70;46.10;;;28.20;69.10;;;;;;3584267;40;20059;-78
2021/06/04 12:48:16;;;;;;;46.78;37.67;;;28.50;68.30;;;;;;3586465;40;20064;-79
2021/06/04 12:51:05;;;;;;;49.15;42.83;;;28.70;68.70;;;;;;3577207;40;20040;-79
2021/06/04 12:53:38;;;;;;;55.70;47.72;;;28.70;68.30;;;;;;3577159;40;20033;-79
2021/06/04 12:56:03;;;;;;;;;;;28.50;66.60;;;;;;3587105;40;20036;-79
2021/06/04 12:58:35;;;;;;;49.40;40.42;;;28.20;64.50;;;;;;3586402;40;19934;-79
2021/06/04 13:01:25;;;;;;;48.83;42.35;;;27.90;68.20;;;;;;3577092;40;20542;-79